Zim Pacific — A8OZ4 — position and weather

sailwx.info

Track history (hours):
 
Tides and Currents Weather Stations Pressure Air Temp Water Temp Dewpoint Dewpoint Depression Visibility Wind Speed Wind Dir Waves Ship Positions

Zim Pacific

Last reported at 2014-Jul-24 20:33 UTC. Time now 2014-Jul-30 03:01 UTC.
Position N 31°35' E 032°22'.

Length 254 m; draft 8.9 m.

Type: Ship. MMSI: 636016512.

Date/timePositionNaut miles runAvg speedWind from/ knotsBaromVisibWave heightAir tempDewpointWater temp
2014-Jul-24 20:33N 31°35' E 032°22'1414.5
2014-Jul-24 19:34N 31°43' E 032°36'1615.6
2014-Jul-24 18:33N 31°49' E 032°53'1615.9
2014-Jul-24 17:34N 31°55' E 033°10'1616.1
2014-Jul-24 16:33N 32°01' E 033°28'  
2014-Jul-20 08:04N 36°11' E 026°45'917.1
2014-Jul-20 07:33N 36°15' E 026°36'1717.0
2014-Jul-20 06:33N 36°24' E 026°18'1817.1
2014-Jul-20 05:32N 36°33' E 025°59'1717.4
2014-Jul-20 04:33N 36°42' E 025°41'1717.2
2014-Jul-20 03:33N 36°49' E 025°21'1716.5
2014-Jul-20 02:33N 36°54' E 025°02'1616.2
2014-Jul-20 01:33N 37°04' E 024°46'1717.0
2014-Jul-20 00:33N 37°15' E 024°30'2016.3
2014-Jul-19 23:20N 37°24' E 024°08'41 4.2
2014-Jul-19 13:33N 37°57' E 023°36'0 0.0
2014-Jul-19 12:33N 37°57' E 023°36'0 0.0
2014-Jul-19 11:33N 37°57' E 023°36'0 0.0
2014-Jul-19 10:31N 37°57' E 023°36'0 0.0
2014-Jul-19 09:33N 37°57' E 023°36'0 0.0
2014-Jul-19 08:32N 37°57' E 023°36'0 0.0
2014-Jul-19 07:32N 37°57' E 023°36'0 0.0
2014-Jul-19 06:31N 37°57' E 023°36'0 0.0
2014-Jul-19 05:31N 37°57' E 023°36'0 0.0
2014-Jul-19 04:28N 37°57' E 023°36'0 0.0
2014-Jul-19 03:31N 37°57' E 023°36'0 0.0
2014-Jul-19 02:33N 37°57' E 023°36'0 0.0
2014-Jul-19 01:33N 37°57' E 023°36'0 0.0
2014-Jul-19 00:32N 37°57' E 023°36'0 0.0
2014-Jul-18 23:32N 37°57' E 023°36'0 0.0
2014-Jul-18 22:31N 37°57' E 023°36'0 0.0
2014-Jul-18 21:31N 37°57' E 023°36'0 0.0
2014-Jul-18 20:31N 37°57' E 023°36'0 0.0
2014-Jul-18 19:33N 37°57' E 023°36'0 0.0
2014-Jul-18 18:33N 37°57' E 023°36'0 0.0
2014-Jul-18 17:32N 37°57' E 023°36'0 0.0
2014-Jul-18 16:32N 37°57' E 023°36'0 0.0
2014-Jul-18 15:31N 37°57' E 023°36'0 0.1
2014-Jul-18 14:31N 37°57' E 023°36'0 0.1
2014-Jul-18 13:33N 37°57' E 023°36'0 0.0
2014-Jul-18 12:27N 37°57' E 023°36'0 0.0
2014-Jul-18 11:32N 37°57' E 023°36'0 0.0
2014-Jul-18 10:32N 37°57' E 023°36'0 0.0
2014-Jul-18 09:33N 37°57' E 023°36'0 0.0
2014-Jul-18 06:10N 37°57' E 023°36'0 0.0
2014-Jul-18 03:22N 37°57' E 023°36'0 0.0
2014-Jul-18 02:27N 37°57' E 023°36'0 0.0
2014-Jul-18 00:32N 37°57' E 023°36'0 0.0
2014-Jul-17 23:32N 37°57' E 023°36'0 0.0
2014-Jul-17 22:31N 37°57' E 023°36'0 0.0
2014-Jul-17 21:31N 37°57' E 023°36'0 0.0
2014-Jul-17 20:33N 37°57' E 023°36'0 0.0
2014-Jul-17 19:33N 37°57' E 023°36'0 0.0
2014-Jul-17 18:33N 37°57' E 023°36'0 0.0
2014-Jul-17 17:32N 37°57' E 023°36'0 0.0
2014-Jul-17 16:32N 37°57' E 023°36'0 0.0
2014-Jul-17 15:31N 37°57' E 023°36'0 0.0
2014-Jul-17 14:31N 37°57' E 023°36'0 0.0
2014-Jul-17 13:33N 37°57' E 023°36'2 1.6
2014-Jul-17 12:33N 37°56' E 023°36'2 2.0
2014-Jul-17 11:33N 37°54' E 023°38'6 6.2
2014-Jul-17 10:33N 37°48' E 023°41'5 4.9
2014-Jul-17 09:33N 37°44' E 023°44'5 4.9
2014-Jul-17 08:33N 37°40' E 023°47'2811.5
2014-Jul-17 06:08N 37°21' E 024°13'811.5
2014-Jul-17 05:26N 37°16' E 024°21'1011.4
2014-Jul-17 04:33N 37°14' E 024°33'1111.5
2014-Jul-17 03:33N 37°06' E 024°43'1212.1
2014-Jul-17 02:33N 36°57' E 024°54'1211.9
2014-Jul-17 01:33N 36°53' E 025°07'1212.5
2014-Jul-17 00:33N 36°48' E 025°22'1312.5
2014-Jul-16 23:32N 36°43' E 025°37'1211.8
2014-Jul-16 22:32N 36°38' E 025°50'1111.6
2014-Jul-16 21:33N 36°32' E 026°02'1211.7
2014-Jul-16 20:33N 36°26' E 026°14'1211.7
2014-Jul-16 19:33N 36°20' E 026°27'1912.0
2014-Jul-16 18:00N 36°12' E 026°48'13511.2 320 / 101010.010.8 0.525.021.023.0
2014-Jul-16 06:00N 35°42' E 029°30'8313.8 300 / 201006.010.8 2.026.025.026.0
2014-Jul-16 00:00N 35°42' E 031°12'13711.4 270 / 191004.010.8 28.024.026.0
2014-Jul-15 12:00N 36°00' E 034°00'   220 / 41003.010.8 32.024.028.0
Track history (hours):
 
Tides and Currents Weather Stations Pressure Air Temp Water Temp Dewpoint Dewpoint Depression Visibility Wind Speed Wind Dir Waves Ship Positions

Zim Pacific

Last reported at 2014-Jul-24 20:33 UTC. Time now 2014-Jul-30 03:01 UTC.
Position N 31°35' E 032°22'.

Length 254 m; draft 8.9 m.

Type: Ship. MMSI: 636016512.

Date/timePositionNaut miles runAvg speedWind from/ knotsBaromVisibWave heightAir tempDewpointWater temp
2014-Jul-24 20:33N 31°35' E 032°22'1414.5
2014-Jul-24 19:34N 31°43' E 032°36'1615.6
2014-Jul-24 18:33N 31°49' E 032°53'1615.9
2014-Jul-24 17:34N 31°55' E 033°10'1616.1
2014-Jul-24 16:33N 32°01' E 033°28'  
2014-Jul-20 08:04N 36°11' E 026°45'917.1
2014-Jul-20 07:33N 36°15' E 026°36'1717.0
2014-Jul-20 06:33N 36°24' E 026°18'1817.1
2014-Jul-20 05:32N 36°33' E 025°59'1717.4
2014-Jul-20 04:33N 36°42' E 025°41'1717.2
2014-Jul-20 03:33N 36°49' E 025°21'1716.5
2014-Jul-20 02:33N 36°54' E 025°02'1616.2
2014-Jul-20 01:33N 37°04' E 024°46'1717.0
2014-Jul-20 00:33N 37°15' E 024°30'2016.3
2014-Jul-19 23:20N 37°24' E 024°08'41 4.2
2014-Jul-19 13:33N 37°57' E 023°36'0 0.0
2014-Jul-19 12:33N 37°57' E 023°36'0 0.0
2014-Jul-19 11:33N 37°57' E 023°36'0 0.0
2014-Jul-19 10:31N 37°57' E 023°36'0 0.0
2014-Jul-19 09:33N 37°57' E 023°36'0 0.0
2014-Jul-19 08:32N 37°57' E 023°36'0 0.0
2014-Jul-19 07:32N 37°57' E 023°36'0 0.0
2014-Jul-19 06:31N 37°57' E 023°36'0 0.0
2014-Jul-19 05:31N 37°57' E 023°36'0 0.0
2014-Jul-19 04:28N 37°57' E 023°36'0 0.0
2014-Jul-19 03:31N 37°57' E 023°36'0 0.0
2014-Jul-19 02:33N 37°57' E 023°36'0 0.0
2014-Jul-19 01:33N 37°57' E 023°36'0 0.0
2014-Jul-19 00:32N 37°57' E 023°36'0 0.0
2014-Jul-18 23:32N 37°57' E 023°36'0 0.0
2014-Jul-18 22:31N 37°57' E 023°36'0 0.0
2014-Jul-18 21:31N 37°57' E 023°36'0 0.0
2014-Jul-18 20:31N 37°57' E 023°36'0 0.0
2014-Jul-18 19:33N 37°57' E 023°36'0 0.0
2014-Jul-18 18:33N 37°57' E 023°36'0 0.0
2014-Jul-18 17:32N 37°57' E 023°36'0 0.0
2014-Jul-18 16:32N 37°57' E 023°36'0 0.0
2014-Jul-18 15:31N 37°57' E 023°36'0 0.1
2014-Jul-18 14:31N 37°57' E 023°36'0 0.1
2014-Jul-18 13:33N 37°57' E 023°36'0 0.0
2014-Jul-18 12:27N 37°57' E 023°36'0 0.0
2014-Jul-18 11:32N 37°57' E 023°36'0 0.0
2014-Jul-18 10:32N 37°57' E 023°36'0 0.0
2014-Jul-18 09:33N 37°57' E 023°36'0 0.0
2014-Jul-18 06:10N 37°57' E 023°36'0 0.0
2014-Jul-18 03:22N 37°57' E 023°36'0 0.0
2014-Jul-18 02:27N 37°57' E 023°36'0 0.0
2014-Jul-18 00:32N 37°57' E 023°36'0 0.0
2014-Jul-17 23:32N 37°57' E 023°36'0 0.0
2014-Jul-17 22:31N 37°57' E 023°36'0 0.0
2014-Jul-17 21:31N 37°57' E 023°36'0 0.0
2014-Jul-17 20:33N 37°57' E 023°36'0 0.0
2014-Jul-17 19:33N 37°57' E 023°36'0 0.0
2014-Jul-17 18:33N 37°57' E 023°36'0 0.0
2014-Jul-17 17:32N 37°57' E 023°36'0 0.0
2014-Jul-17 16:32N 37°57' E 023°36'0 0.0
2014-Jul-17 15:31N 37°57' E 023°36'0 0.0
2014-Jul-17 14:31N 37°57' E 023°36'0 0.0
2014-Jul-17 13:33N 37°57' E 023°36'2 1.6
2014-Jul-17 12:33N 37°56' E 023°36'2 2.0
2014-Jul-17 11:33N 37°54' E 023°38'6 6.2
2014-Jul-17 10:33N 37°48' E 023°41'5 4.9
2014-Jul-17 09:33N 37°44' E 023°44'5 4.9
2014-Jul-17 08:33N 37°40' E 023°47'2811.5
2014-Jul-17 06:08N 37°21' E 024°13'811.5
2014-Jul-17 05:26N 37°16' E 024°21'1011.4
2014-Jul-17 04:33N 37°14' E 024°33'1111.5
2014-Jul-17 03:33N 37°06' E 024°43'1212.1
2014-Jul-17 02:33N 36°57' E 024°54'1211.9
2014-Jul-17 01:33N 36°53' E 025°07'1212.5
2014-Jul-17 00:33N 36°48' E 025°22'1312.5
2014-Jul-16 23:32N 36°43' E 025°37'1211.8
2014-Jul-16 22:32N 36°38' E 025°50'1111.6
2014-Jul-16 21:33N 36°32' E 026°02'1211.7
2014-Jul-16 20:33N 36°26' E 026°14'1211.7
2014-Jul-16 19:33N 36°20' E 026°27'1912.0
2014-Jul-16 18:00N 36°12' E 026°48'13511.2 320 / 101010.010.8 0.525.021.023.0
2014-Jul-16 06:00N 35°42' E 029°30'8313.8 300 / 201006.010.8 2.026.025.026.0
2014-Jul-16 00:00N 35°42' E 031°12'13711.4 270 / 191004.010.8 28.024.026.0
2014-Jul-15 12:00N 36°00' E 034°00'   220 / 41003.010.8 32.024.028.0

Dump ship's entire track history